Time;durP1;ratioP1;P1;durP2;ratioP2;P2;SDS_P1;SDS_P2;PMS_P1;PMS_P2;Temp;Humidity;BMP_temperature;BMP_pressure;BME280_temperature;BME280_humidity;BME280_pressure;Samples;Min_cycle;Max_cycle;Signal;HPM_P1;HPM_P2
2022/08/27 00:00:23;;;;;;;40.30;7.00;;;;;;;23.18;64.11;100178.13;4986354;28;20046;-84
2022/08/27 00:02:50;;;;;;;50.70;8.07;;;;;;;23.18;64.18;100167.16;4984959;28;20077;-83
2022/08/27 00:05:17;;;;;;;34.85;7.63;;;;;;;23.26;63.97;100174.94;4985261;28;20061;-84
2022/08/27 00:07:44;;;;;;;38.25;7.30;;;;;;;23.31;63.99;100176.91;4970258;28;20058;-85
2022/08/27 00:10:16;;;;;;;25.98;6.75;;;;;;;23.32;63.82;100170.31;4951178;28;20047;-84
2022/08/27 00:12:43;;;;;;;36.60;6.97;;;;;;;23.27;63.92;100171.13;4958952;28;20046;-84
2022/08/27 00:15:10;;;;;;;35.75;7.18;;;;;;;23.16;64.27;100170.16;4987924;28;20050;-84
2022/08/27 00:17:36;;;;;;;32.30;7.25;;;;;;;23.19;64.30;100179.78;4990937;28;20038;-84
2022/08/27 00:20:05;;;;;;;31.10;7.75;;;;;;;23.14;64.40;100171.50;4974061;28;20623;-84
2022/08/27 00:22:31;;;;;;;27.13;7.25;;;;;;;23.10;64.50;100184.06;4955283;28;20125;-84
2022/08/27 00:24:57;;;;;;;24.70;7.45;;;;;;;23.03;64.63;100180.69;4959905;28;20038;-84
2022/08/27 00:27:23;;;;;;;31.65;8.30;;;;;;;22.98;65.00;100184.16;4989969;28;20041;-83
2022/08/27 00:29:48;;;;;;;28.00;7.28;;;;;;;22.69;64.94;100142.41;4976203;28;20069;-84
2022/08/27 00:32:15;;;;;;;31.35;7.55;;;;;;;22.90;65.03;100182.69;4974582;28;20483;-83
2022/08/27 00:34:42;;;;;;;38.20;7.38;;;;;;;22.84;65.16;100177.41;4972178;28;20063;-83
2022/08/27 00:37:08;;;;;;;32.30;7.15;;;;;;;22.88;64.93;100182.13;4972231;28;20070;-84
2022/08/27 00:39:35;;;;;;;25.75;6.82;;;;;;;22.74;64.93;100175.34;4975439;28;20046;-83
2022/08/27 00:42:01;;;;;;;35.20;7.20;;;;;;;22.81;64.83;100184.22;4973819;28;20038;-83
2022/08/27 00:44:27;;;;;;;37.35;7.15;;;;;;;22.85;64.93;100188.13;4992828;28;20077;-83
2022/08/27 00:47:21;;;;;;;39.45;7.15;;;;;;;22.94;64.31;100189.34;4972456;28;20043;-83
2022/08/27 00:50:09;;;;;;;28.17;7.53;;;;;;;22.81;64.72;100165.03;4948435;28;20054;-84
2022/08/27 00:52:54;;;;;;;34.95;6.85;;;;;;;22.73;64.54;100165.44;4973388;28;20042;-82
2022/08/27 00:55:24;;;;;;;36.17;7.70;;;;;;;22.70;65.24;100190.63;4975005;28;20146;-83
2022/08/27 00:58:09;;;;;;;22.20;7.00;;;;;;;22.69;65.16;100184.31;4966531;28;20529;-84
2022/08/27 01:00:39;;;;;;;23.25;6.43;;;;;;;22.67;65.10;100171.97;4973724;28;20129;-83
2022/08/27 01:03:06;;;;;;;35.67;7.07;;;;;;;22.67;65.42;100191.97;4999499;28;20042;-80
2022/08/27 01:05:31;;;;;;;40.78;6.93;;;;;;;22.56;65.68;100179.19;4998896;28;20045;-82
2022/08/27 01:08:05;;;;;;;36.78;7.53;;;;;;;22.59;65.53;100186.09;4979574;28;20038;-84
2022/08/27 01:10:32;;;;;;;28.42;7.00;;;;;;;22.46;65.85;100171.66;4982130;28;20046;-84
2022/08/27 01:12:58;;;;;;;28.40;6.50;;;;;;;22.48;65.48;100176.91;4971686;28;20039;-84
2022/08/27 01:15:26;;;;;;;29.38;7.05;;;;;;;22.41;66.13;100174.34;4988115;28;20533;-83
2022/08/27 01:17:52;;;;;;;37.38;6.82;;;;;;;22.38;66.07;100180.28;4976436;28;20085;-84
2022/08/27 01:20:33;;;;;;;26.77;7.15;;;;;;;22.36;65.97;100177.00;4971849;28;20074;-84
2022/08/27 01:23:11;;;;;;;38.83;7.50;;;;;;;22.31;66.12;100171.44;4956600;28;20038;-83
2022/08/27 01:25:37;;;;;;;34.17;7.82;;;;;;;22.31;65.83;100165.94;4989122;28;20410;-84
2022/08/27 01:28:07;;;;;;;35.95;8.10;;;;;;;22.35;66.27;100175.31;4952729;28;20054;-85
2022/08/27 01:30:35;;;;;;;43.00;7.50;;;;;;;22.41;66.09;100187.22;4974038;28;20122;-84
2022/08/27 01:33:13;;;;;;;37.45;7.60;;;;;;;22.39;66.29;100190.19;4989303;28;20624;-84
2022/08/27 01:35:38;;;;;;;32.58;7.97;;;;;;;22.23;66.57;100172.69;4969025;28;20448;-83
2022/08/27 01:38:08;;;;;;;33.08;8.10;;;;;;;22.23;66.50;100183.63;4966795;28;20042;-83
2022/08/27 01:40:33;;;;;;;35.17;7.78;;;;;;;22.28;66.56;100191.09;4969293;28;20058;-84
2022/08/27 01:43:00;;;;;;;30.73;7.18;;;;;;;22.23;66.79;100188.28;4965156;28;20105;-84
2022/08/27 01:45:28;;;;;;;32.55;7.93;;;;;;;22.36;66.47;100201.66;5003494;28;20056;-84
2022/08/27 01:47:58;;;;;;;33.35;7.22;;;;;;;22.36;66.39;100198.91;4987226;28;20080;-87
2022/08/27 01:50:26;;;;;;;37.65;7.30;;;;;;;22.35;66.34;100191.75;4984777;28;20046;-85
2022/08/27 01:52:53;;;;;;;34.83;7.40;;;;;;;22.21;66.51;100193.19;4973583;28;20055;-84
2022/08/27 01:55:21;;;;;;;39.78;7.35;;;;;;;22.29;66.35;100192.78;4972067;28;20186;-84
2022/08/27 01:57:59;;;;;;;34.83;7.68;;;;;;;22.32;66.27;100186.78;4973137;28;20426;-85
2022/08/27 02:00:27;;;;;;;38.97;6.88;;;;;;;22.33;65.71;100183.78;4982419;28;20073;-86
2022/08/27 02:02:54;;;;;;;38.50;6.60;;;;;;;22.23;65.64;100171.84;4957821;28;20506;-85
2022/08/27 02:05:20;;;;;;;49.13;6.85;;;;;;;22.23;65.01;100200.06;4988760;28;20426;-85
2022/08/27 02:07:47;;;;;;;44.25;7.10;;;;;;;22.31;64.67;100185.13;4969661;28;20050;-84
2022/08/27 02:10:16;;;;;;;37.20;6.75;;;;;;;22.38;64.15;100191.25;4994632;28;20078;-85
2022/08/27 02:12:43;;;;;;;40.35;6.95;;;;;;;22.39;64.06;100186.63;4995813;28;20050;-85
2022/08/27 02:15:10;;;;;;;46.13;7.28;;;;;;;22.39;64.59;100192.94;4972956;28;20495;-84
2022/08/27 02:17:37;;;;;;;29.92;6.90;;;;;;;22.34;64.95;100184.63;4958087;28;20061;-83
2022/08/27 02:20:04;;;;;;;37.72;7.63;;;;;;;22.44;65.43;100195.72;4955138;28;20108;-84
2022/08/27 02:22:32;;;;;;;40.90;8.18;;;;;;;22.32;66.13;100195.00;4987511;28;20589;-84
2022/08/27 02:25:02;;;;;;;46.97;8.38;;;;;;;22.25;66.14;100191.59;4958383;28;20050;-84
2022/08/27 02:27:31;;;;;;;40.22;8.20;;;;;;;22.21;66.72;100191.25;4990347;28;20523;-84
2022/08/27 02:29:56;;;;;;;34.58;7.60;;;;;;;22.27;66.17;100197.66;4970840;28;20035;-84
2022/08/27 02:32:22;;;;;;;37.53;8.27;;;;;;;22.23;66.15;100202.81;4971464;28;20544;-84
2022/08/27 02:34:48;;;;;;;34.95;7.75;;;;;;;22.33;66.21;100199.38;4986914;28;20472;-85
2022/08/27 02:37:14;;;;;;;34.90;7.68;;;;;;;22.35;65.97;100197.22;4968881;28;20042;-84
2022/08/27 02:39:41;;;;;;;40.88;8.05;;;;;;;22.20;65.45;100173.16;4987615;28;20038;-84
2022/08/27 02:42:09;;;;;;;35.65;7.63;;;;;;;22.23;65.40;100171.84;4967379;28;20039;-85
2022/08/27 02:44:34;;;;;;;29.08;7.10;;;;;;;22.38;65.70;100215.06;4991478;28;20505;-84
2022/08/27 02:47:01;;;;;;;38.47;8.30;;;;;;;;;;4971092;28;20045;-86
2022/08/27 02:49:30;;;;;;;48.58;8.23;;;;;;;22.38;65.29;100206.84;4990734;28;20486;-83
2022/08/27 02:51:56;;;;;;;38.35;7.20;;;;;;;22.31;65.49;100204.28;4979001;28;20093;-85
2022/08/27 02:54:25;;;;;;;40.58;7.97;;;;;;;22.20;65.74;100199.72;4970432;28;20487;-85
2022/08/27 02:56:55;;;;;;;29.70;7.55;;;;;;;22.22;65.10;100200.31;4985884;28;20046;-85
2022/08/27 02:59:23;;;;;;;38.45;8.32;;;;;;;22.35;64.83;100202.72;4990482;28;20498;-84
2022/08/27 03:01:49;;;;;;;27.85;7.63;;;;;;;22.31;65.01;100191.44;4955053;28;20042;-85
2022/08/27 03:04:18;;;;;;;40.75;8.07;;;;;;;22.23;64.95;100199.25;4978935;28;20062;-84
2022/08/27 03:06:47;;;;;;;32.03;7.80;;;;;;;22.24;64.61;100200.88;4977126;28;20039;-84
2022/08/27 03:09:12;;;;;;;33.55;8.13;;;;;;;22.27;64.95;100203.16;4958788;28;20495;-84
2022/08/27 03:11:38;;;;;;;34.30;7.80;;;;;;;22.20;65.01;100206.00;4970842;28;20061;-85
2022/08/27 03:14:04;;;;;;;31.92;8.25;;;;;;;22.16;65.39;100206.75;4957477;28;20045;-84
2022/08/27 03:16:32;;;;;;;43.60;8.73;;;;;;;22.07;65.40;100177.03;4968211;28;20049;-86
2022/08/27 03:19:01;;;;;;;42.35;8.63;;;;;;;22.24;65.86;100217.31;4973105;28;20445;-85
2022/08/27 03:21:27;;;;;;;34.63;8.63;;;;;;;22.20;65.19;100200.53;4967698;28;20043;-85
2022/08/27 03:23:53;;;;;;;42.10;8.40;;;;;;;22.26;65.88;100220.63;4968474;28;20361;-85
2022/08/27 03:26:25;;;;;;;32.78;9.50;;;;;;;22.12;66.01;100222.84;4987402;28;20058;-86
2022/08/27 03:28:51;;;;;;;32.72;9.60;;;;;;;22.18;65.76;100226.50;4972570;28;20062;-85
2022/08/27 03:31:26;;;;;;;44.33;9.85;;;;;;;22.29;65.39;100228.38;4983312;28;20080;-85
2022/08/27 03:33:57;;;;;;;34.25;9.70;;;;;;;22.08;65.58;100211.56;4956549;28;20134;-84
2022/08/27 03:36:25;;;;;;;30.65;9.60;;;;;;;22.13;65.67;100235.47;4971152;28;20043;-85
2022/08/27 03:38:53;;;;;;;26.17;9.25;;;;;;;22.04;65.39;100224.09;4978755;28;20033;-85
2022/08/27 03:41:19;;;;;;;36.60;10.13;;;;;;;22.07;65.45;100234.53;4966528;28;20039;-84
2022/08/27 03:43:48;;;;;;;24.92;8.50;;;;;;;22.11;64.97;100222.00;4972005;28;20180;-86
2022/08/27 03:46:16;;;;;;;31.63;9.13;;;;;;;22.06;64.82;100219.19;4990362;28;20165;-84
2022/08/27 03:48:41;;;;;;;42.13;9.63;;;;;;;22.08;65.04;100230.72;4985125;28;20046;-84
2022/08/27 03:51:12;;;;;;;32.00;8.50;;;;;;;22.18;64.75;100229.25;4994269;28;20537;-85
2022/08/27 03:53:40;;;;;;;31.60;8.57;;;;;;;22.30;64.45;100236.31;4995558;28;20506;-84
2022/08/27 03:56:07;;;;;;;44.22;9.02;;;;;;;22.40;63.47;100235.66;4977772;28;20080;-85
2022/08/27 03:58:36;;;;;;;36.05;9.00;;;;;;;22.42;63.24;100233.50;4992262;28;20509;-85
2022/08/27 04:01:08;;;;;;;48.25;9.25;;;;;;;22.34;62.60;100218.31;4991104;28;20125;-83
2022/08/27 04:03:35;;;;;;;28.17;8.10;;;;;;;22.47;62.20;100230.81;4976885;28;20050;-84
2022/08/27 04:06:02;;;;;;;37.00;8.25;;;;;;;22.57;62.03;100221.13;4973424;28;20038;-84
2022/08/27 04:08:28;;;;;;;35.97;8.30;;;;;;;22.57;61.51;100207.41;4993000;28;20193;-87
2022/08/27 04:10:57;;;;;;;37.50;8.20;;;;;;;22.55;61.29;100196.72;4974675;28;20042;-84
2022/08/27 04:13:22;;;;;;;41.03;9.48;;;;;;;22.87;60.77;100209.75;4973448;28;20447;-85
2022/08/27 04:15:49;;;;;;;33.45;8.52;;;;;;;23.09;59.95;100226.28;4956042;28;20056;-85
2022/08/27 04:18:15;;;;;;;44.97;8.70;;;;;;;23.08;59.46;100211.72;4990755;28;20134;-84
2022/08/27 04:20:43;;;;;;;40.03;8.60;;;;;;;23.26;58.93;100223.47;4971593;28;20069;-85
2022/08/27 04:23:09;;;;;;;46.13;8.70;;;;;;;23.40;58.13;100222.00;4970839;28;20038;-84
2022/08/27 04:25:56;;;;;;;45.97;7.80;;;;;;;23.46;57.24;100206.41;4941915;28;20039;-84
2022/08/27 04:28:22;;;;;;;41.33;7.40;;;;;;;23.74;56.45;100224.56;4976149;28;20049;-84
2022/08/27 04:30:47;;;;;;;41.70;7.38;;;;;;;23.67;56.59;100224.78;4962670;28;20050;-82
2022/08/27 04:33:14;;;;;;;34.30;7.80;;;;;;;23.77;56.23;100218.59;4991863;28;20042;-84
2022/08/27 04:35:40;;;;;;;50.97;7.65;;;;;;;23.94;55.40;100208.31;4961368;28;20069;-83
2022/08/27 04:38:06;;;;;;;51.65;7.60;;;;;;;24.18;55.11;100225.25;4994107;28;20061;-82
2022/08/27 04:43:19;;;;;;;53.78;7.30;;;;;;;24.50;53.58;100229.94;4958791;28;20057;-87
2022/08/27 04:45:47;;;;;;;50.10;8.00;;;;;;;24.44;53.49;100228.22;4953039;28;20502;-86
2022/08/27 04:48:13;;;;;;;42.13;7.35;;;;;;;24.38;53.55;100208.13;4969880;28;20133;-85
2022/08/27 04:50:41;;;;;;;64.15;8.05;;;;;;;24.62;52.66;100218.75;4941540;28;20049;-84
2022/08/27 04:53:10;;;;;;;54.22;7.00;;;;;;;24.83;51.88;100220.53;4954853;28;21220;-85
2022/08/27 04:55:49;;;;;;;62.92;8.35;;;;;;;24.91;51.82;100216.47;4955647;28;20043;-86
2022/08/27 04:58:16;;;;;;;56.90;7.43;;;;;;;25.04;50.84;100223.41;4975511;28;20069;-84
2022/08/27 05:00:51;;;;;;;52.38;6.65;;;;;;;25.17;50.68;100230.31;4948244;28;20050;-84
2022/08/27 05:03:25;;;;;;;58.05;6.95;;;;;;;25.22;50.44;100211.16;4942008;28;20038;-85
2022/08/27 05:05:57;;;;;;;50.20;7.28;;;;;;;25.53;49.77;100223.06;4970910;28;20066;-86
2022/08/27 05:08:23;;;;;;;64.45;8.35;;;;;;;25.55;49.56;100214.56;4970801;28;20039;-85
2022/08/27 05:10:49;;;;;;;56.83;6.82;;;;;;;25.70;49.01;100217.31;4954077;28;20042;-86
2022/08/27 05:13:23;;;;;;;52.75;6.88;;;;;;;25.89;48.89;100235.03;4968482;28;20039;-85
2022/08/27 05:15:58;;;;;;;59.15;8.32;;;;;;;25.86;49.10;100224.53;4950054;28;20116;-85
2022/08/27 05:18:27;;;;;;;47.20;7.38;;;;;;;25.82;48.87;100228.91;4972941;28;20502;-84
2022/08/27 05:20:54;;;;;;;57.55;8.90;;;;;;;26.04;48.59;100219.63;4955974;28;20047;-86
2022/08/27 05:23:20;;;;;;;53.20;9.65;;;;;;;26.27;49.12;100227.34;4955285;28;20090;-84
2022/08/27 05:25:48;;;;;;;51.17;10.82;;;;;;;26.45;48.99;100233.38;4938016;28;20135;-87
2022/08/27 05:28:15;;;;;;;63.88;12.80;;;;;;;26.46;49.05;100230.34;4968373;28;20048;-85
2022/08/27 05:30:48;;;;;;;47.33;11.18;;;;;;;26.43;48.27;100217.09;4973347;28;20062;-84
2022/08/27 05:33:14;;;;;;;47.85;12.93;;;;;;;26.53;48.65;100227.31;4979803;28;20050;-85
2022/08/27 05:35:44;;;;;;;55.28;13.13;;;;;;;26.51;48.39;100232.28;4940841;28;20061;-86
2022/08/27 05:38:11;;;;;;;42.05;11.70;;;;;;;26.67;48.58;100236.69;4971928;28;20081;-85
2022/08/27 05:40:42;;;;;;;53.65;11.70;;;;;;;26.56;48.89;100243.31;4969513;28;20050;-86
2022/08/27 05:43:11;;;;;;;42.38;11.77;;;;;;;26.67;48.67;100247.72;4982477;28;20521;-84
2022/08/27 05:45:42;;;;;;;36.88;11.73;;;;;;;26.65;49.13;100252.69;4989856;28;20355;-86
2022/08/27 05:48:12;;;;;;;42.42;11.23;;;;;;;26.64;48.67;100248.25;4975109;28;20514;-86
2022/08/27 05:50:41;;;;;;;38.90;10.85;;;;;;;26.50;48.69;100228.69;4962809;28;20453;-85
2022/08/27 05:53:10;;;;;;;42.35;11.48;;;;;;;26.39;48.67;100248.28;4963415;28;20050;-87
2022/08/27 05:55:44;;;;;;;48.17;11.77;;;;;;;26.45;48.63;100250.72;4989085;28;20549;-87
2022/08/27 06:01:03;;;;;;;57.35;10.63;;;;;;;26.65;48.77;100260.97;4990855;28;20057;-83
2022/08/27 06:03:32;;;;;;;48.88;11.18;;;;;;;26.51;48.85;100238.59;4985354;28;20042;-85
2022/08/27 06:06:03;;;;;;;54.33;10.75;;;;;;;26.72;48.30;100267.00;4968040;28;20128;-85
2022/08/27 06:08:31;;;;;;;48.58;11.10;;;;;;;26.56;48.93;100250.78;4971502;28;20042;-85
2022/08/27 06:11:00;;;;;;;41.72;9.75;;;;;;;26.69;48.80;100245.53;4988522;28;20117;-84
2022/08/27 06:13:28;;;;;;;49.03;11.00;;;;;;;26.74;47.99;100248.25;4995416;28;20077;-85
2022/08/27 06:16:06;;;;;;;54.28;11.23;;;;;;;26.92;47.95;100255.09;4987550;28;20042;-85
2022/08/27 06:18:37;;;;;;;51.20;12.02;;;;;;;27.06;47.52;100257.28;4991295;28;20037;-88
2022/08/27 06:21:07;;;;;;;50.60;12.25;;;;;;;27.24;47.76;100272.44;4977094;28;20450;-85
2022/08/27 06:23:35;;;;;;;64.13;13.32;;;;;;;27.32;47.32;100277.34;4988278;28;20437;-85
2022/08/27 06:26:01;;;;;;;44.63;12.40;;;;;;;27.17;48.19;100286.50;4958971;28;20049;-85
2022/08/27 06:28:28;;;;;;;52.33;12.70;;;;;;;27.29;47.79;100275.16;4974426;28;20441;-83
2022/08/27 06:31:06;;;;;;;52.28;12.75;;;;;;;27.40;47.21;100264.94;4985844;28;20046;-83
2022/08/27 06:33:31;;;;;;;45.75;13.25;;;;;;;27.40;47.29;100293.34;4982142;28;20042;-84
2022/08/27 06:36:00;;;;;;;46.22;13.18;;;;;;;27.47;46.88;100277.31;4968997;28;20043;-85
2022/08/27 06:38:29;;;;;;;36.80;13.45;;;;;;;27.57;47.64;100291.06;4974522;28;20046;-85
2022/08/27 06:40:55;;;;;;;43.47;12.48;;;;;;;27.66;47.31;100293.25;4956290;28;20133;-87
2022/08/27 06:43:22;;;;;;;49.83;12.68;;;;;;;27.87;46.18;100294.81;4974696;28;20113;-86
2022/08/27 06:45:48;;;;;;;44.17;13.63;;;;;;;28.06;46.05;100277.56;4966279;28;20042;-87
2022/08/27 06:48:14;;;;;;;46.50;12.65;;;;;;;28.59;44.87;100288.78;4971613;28;20494;-84
2022/08/27 06:50:42;;;;;;;47.50;12.52;;;;;;;29.03;44.04;100296.09;4966747;28;20506;-82
2022/08/27 06:53:09;;;;;;;53.53;12.18;;;;;;;29.52;43.13;100303.28;4972342;28;20101;-84
2022/08/27 06:55:50;;;;;;;51.72;11.75;;;;;;;29.75;42.94;100296.09;4970959;28;20042;-82
2022/08/27 06:58:16;;;;;;;45.85;11.73;;;;;;;30.01;42.32;100304.06;4971933;28;20069;-83
2022/08/27 07:00:42;;;;;;;46.17;11.15;;;;;;;29.87;41.82;100303.97;4973797;28;20073;-83
2022/08/27 07:03:10;;;;;;;46.13;11.80;;;;;;;29.94;42.50;100298.88;4991167;28;20046;-83
2022/08/27 07:05:37;;;;;;;40.97;11.52;;;;;;;30.23;41.71;100286.81;4991601;28;20046;-82
2022/08/27 07:08:03;;;;;;;48.00;11.18;;;;;;;30.41;41.27;100290.72;4991425;28;20513;-84
2022/08/27 07:10:33;;;;;;;52.25;11.15;;;;;;;30.45;40.65;100287.03;4990832;28;20035;-83
2022/08/27 07:12:58;;;;;;;46.08;10.98;;;;;;;30.58;40.97;100306.78;4977310;28;20053;-83
2022/08/27 07:15:27;;;;;;;54.33;10.75;;;;;;;30.68;40.59;100293.56;4961670;28;20133;-83
2022/08/27 07:17:52;;;;;;;56.95;11.15;;;;;;;30.92;40.67;100314.81;4996232;28;20113;-83
2022/08/27 07:20:33;;;;;;;61.47;11.05;;;;;;;31.26;39.75;100305.31;4972421;28;20049;-83
2022/08/27 07:23:08;;;;;;;39.95;9.25;;;;;;;31.50;39.01;100311.50;4989504;28;20049;-82
2022/08/27 07:25:42;;;;;;;44.22;8.73;;;;;;;31.89;37.84;100306.47;4983109;28;20106;-85
2022/08/27 07:28:11;;;;;;;42.00;9.32;;;;;;;32.35;36.86;100308.22;4970253;28;20034;-84
2022/08/27 07:30:36;;;;;;;47.75;8.68;;;;;;;32.77;36.22;100311.63;4995058;28;20133;-83
2022/08/27 07:33:04;;;;;;;43.58;9.50;;;;;;;33.03;35.78;100297.03;4974370;28;20038;-83
2022/08/27 07:35:33;;;;;;;53.50;9.75;;;;;;;33.30;35.24;100287.69;4974080;28;20058;-83
2022/08/27 07:38:00;;;;;;;50.08;8.90;;;;;;;33.67;33.51;100277.97;4974862;28;20038;-84
2022/08/27 07:40:27;;;;;;;56.97;8.23;;;;;;;33.93;31.99;100278.00;4959359;28;20047;-82
2022/08/27 07:45:45;;;;;;;52.92;8.32;;;;;;;34.61;30.61;100288.66;4976939;28;20577;-86
2022/08/27 07:48:14;;;;;;;53.60;7.40;;;;;;;35.12;28.96;100289.63;4991306;28;20499;-82
2022/08/27 07:51:04;;;;;;;60.17;7.80;;;;;;;35.70;27.64;100296.41;4972264;28;20046;-84
2022/08/27 07:53:30;;;;;;;63.80;7.68;;;;;;;36.10;28.09;100295.97;4974328;28;20042;-84
2022/08/27 07:56:04;;;;;;;51.53;7.72;;;;;;;36.49;27.18;100295.81;4985176;28;20057;-83
2022/08/27 07:58:29;;;;;;;74.80;7.65;;;;;;;36.57;26.47;100283.69;4978363;28;20041;-81
2022/08/27 08:00:56;;;;;;;53.72;7.45;;;;;;;35.65;27.17;100290.22;4974407;28;20133;-82
2022/08/27 08:03:22;;;;;;;49.58;6.80;;;;;;;35.35;27.39;100292.19;4971919;28;20091;-84
2022/08/27 08:05:51;;;;;;;52.65;6.90;;;;;;;35.42;27.67;100303.63;4968361;28;20103;-85
2022/08/27 08:08:21;;;;;;;49.10;7.05;;;;;;;35.44;27.81;100290.97;4957151;28;20050;-83
2022/08/27 08:10:48;;;;;;;54.10;7.82;;;;;;;36.14;26.83;100273.75;4954369;28;20108;-87
2022/08/27 08:13:17;;;;;;;60.13;7.95;;;;;;;36.36;26.07;100272.53;4972135;28;20140;-85
2022/08/27 08:15:45;;;;;;;56.90;7.55;;;;;;;36.67;25.48;100285.28;4970979;28;20118;-83
2022/08/27 08:18:11;;;;;;;52.30;7.20;;;;;;;36.74;24.58;100291.94;4972597;28;20042;-83
2022/08/27 08:20:37;;;;;;;47.38;7.10;;;;;;;37.54;24.48;100287.84;4955527;28;20068;-83
2022/08/27 08:23:02;;;;;;;53.20;7.38;;;;;;;37.96;23.32;100269.88;4955878;28;20034;-84
2022/08/27 08:25:29;;;;;;;51.70;7.38;;;;;;;38.36;23.16;100275.44;4954436;28;20478;-83
2022/08/27 08:27:55;;;;;;;61.58;8.35;;;;;;;39.20;21.37;100291.34;4971815;28;20184;-87
2022/08/27 08:30:26;;;;;;;55.00;7.93;;;;;;;39.49;20.87;100286.44;4954204;28;20489;-82
2022/08/27 08:32:52;;;;;;;53.72;8.15;;;;;;;40.19;19.63;100279.13;4984667;28;20046;-84
2022/08/27 08:35:19;;;;;;;46.75;6.93;;;;;;;41.36;19.30;100281.69;4973016;28;20042;-83
2022/08/27 08:37:46;;;;;;;60.72;7.68;;;;;;;41.77;18.74;100293.97;4975853;28;20038;-84
2022/08/27 08:40:42;;;;;;;63.38;8.25;;;;;;;42.27;18.71;100276.91;4956862;28;20439;-85
2022/08/27 08:43:24;;;;;;;47.30;6.95;;;;;;;43.07;17.36;100279.34;4986941;28;20043;-83
2022/08/27 08:45:50;;;;;;;55.00;7.53;;;;;;;43.12;16.91;100281.78;4973100;28;20506;-83
2022/08/27 08:48:18;;;;;;;55.38;7.72;;;;;;;41.96;18.23;100290.25;4957997;28;20053;-86
2022/08/27 08:51:02;;;;;;;55.58;7.50;;;;;;;42.44;17.59;100284.78;4975179;28;20042;-83
2022/08/27 08:53:31;;;;;;;;;;;;;;;42.94;16.75;100293.78;4989196;28;20058;-83
2022/08/27 08:56:02;;;;;;;51.53;7.32;;;;;;;43.66;16.25;100294.34;4992425;28;19953;-84
2022/08/27 08:58:46;;;;;;;52.47;7.45;;;;;;;44.22;15.61;100287.34;4959935;28;20039;-82
2022/08/27 09:01:17;;;;;;;44.10;6.97;;;;;;;43.34;17.43;100272.31;4973373;28;20161;-83
2022/08/27 09:04:03;;;;;;;46.97;7.03;;;;;;;42.32;18.04;100282.19;4992430;28;20036;-84
2022/08/27 09:06:51;;;;;;;54.03;7.63;;;;;;;40.91;20.27;100273.69;4988213;28;20066;-84
2022/08/27 09:09:26;;;;;;;39.35;7.50;;;;;;;41.32;20.17;100273.16;4991684;28;20181;-82
2022/08/27 09:12:06;;;;;;;52.58;7.53;;;;;;;42.01;20.93;100287.09;4957954;28;20069;-84
2022/08/27 09:14:39;;;;;;;71.80;8.98;;;;;;;42.44;21.23;100298.91;4973417;28;20035;-85
2022/08/27 09:17:06;;;;;;;58.90;8.10;;;;;;;40.80;22.89;100300.06;4992611;28;20038;-83
2022/08/27 09:19:33;;;;;;;50.50;7.50;;;;;;;41.26;21.98;100314.97;4944531;28;20097;-82
2022/08/27 09:22:23;;;;;;;53.22;7.25;;;;;;;41.49;21.80;100300.00;4991032;28;20041;-81
2022/08/27 09:25:04;;;;;;;59.58;7.75;;;;;;;42.95;21.05;100306.72;4992433;28;20026;-85
2022/08/27 09:27:39;;;;;;;55.05;8.60;;;;;;;43.67;19.67;100301.63;4977564;28;20042;-83
2022/08/27 09:30:13;;;;;;;53.50;8.00;;;;;;;43.54;19.32;100303.13;4988472;28;20117;-83
2022/08/27 09:32:40;;;;;;;54.33;7.55;;;;;;;44.79;17.93;100306.50;4975044;28;20074;-82
2022/08/27 09:35:08;;;;;;;51.25;7.60;;;;;;;44.15;19.04;100298.63;4991363;28;20071;-81
2022/08/27 09:37:42;;;;;;;67.03;8.05;;;;;;;43.48;19.37;100293.38;4973962;28;20112;-81
2022/08/27 09:40:15;;;;;;;57.33;7.10;;;;;;;44.46;18.58;100305.63;4990466;28;20047;-81
2022/08/27 09:42:53;;;;;;;53.03;7.28;;;;;;;45.02;18.03;100300.47;4976265;28;20098;-83
2022/08/27 09:45:25;;;;;;;48.67;6.93;;;;;;;45.79;18.67;100297.16;4989649;28;20145;-85
2022/08/27 09:48:01;;;;;;;49.55;7.13;;;;;;;45.83;18.31;100306.47;4974711;28;20080;-82
2022/08/27 09:50:38;;;;;;;45.55;6.50;;;;;;;44.91;19.81;100305.34;4973918;28;20064;-84
2022/08/27 09:53:04;;;;;;;46.45;7.88;;;;;;;43.61;20.87;100294.72;4992031;28;20072;-83
2022/08/27 09:55:42;;;;;;;52.17;6.75;;;;;;;44.33;20.32;100304.38;4955647;28;20074;-87
2022/08/27 09:58:21;;;;;;;44.75;6.95;;;;;;;45.46;17.84;100296.41;4959275;28;20364;-84
2022/08/27 10:00:49;;;;;;;51.55;6.97;;;;;;;46.00;18.19;100301.97;4957552;28;20042;-84
2022/08/27 10:03:21;;;;;;;48.15;7.05;;;;;;;44.50;20.21;100300.00;4958640;28;20497;-83
2022/08/27 10:05:53;;;;;;;56.25;7.03;;;;;;;44.13;20.91;100311.59;4959093;28;20476;-84
2022/08/27 10:08:27;;;;;;;42.95;6.40;;;;;;;44.75;19.28;100279.38;4959549;28;20050;-82
2022/08/27 10:11:02;;;;;;;45.08;6.68;;;;;;;45.28;19.04;100301.28;4956074;28;20469;-82
2022/08/27 10:14:00;;;;;;;39.08;6.50;;;;;;;43.99;19.42;100306.63;4974190;28;20083;-83
2022/08/27 10:16:57;;;;;;;44.08;6.85;;;;;;;44.98;17.57;100302.50;4986534;28;20050;-88
2022/08/27 10:20:00;;;;;;;53.20;6.70;;;;;;;44.60;17.04;100276.50;4970477;28;20070;-87
2022/08/27 10:22:55;;;;;;;50.90;7.13;;;;;;;43.57;17.32;100300.31;4985994;28;20073;-85
2022/08/27 10:25:36;;;;;;;39.80;6.35;;;;;;;44.31;16.55;100305.97;4970766;28;20043;-85
2022/08/27 10:28:03;;;;;;;33.05;5.93;;;;;;;43.99;16.26;100298.13;4951027;28;20573;-85
2022/08/27 10:30:44;;;;;;;35.05;5.47;;;;;;;43.56;16.12;100298.69;4985865;28;20429;-85
2022/08/27 10:33:25;;;;;;;38.00;6.38;;;;;;;44.08;16.60;100281.63;4971541;28;20046;-85
2022/08/27 10:36:24;;;;;;;42.03;6.35;;;;;;;43.13;16.56;100283.41;4973711;28;20566;-84
2022/08/27 10:39:11;;;;;;;35.17;5.78;;;;;;;43.67;16.59;100295.16;4981989;28;20129;-82
2022/08/27 10:42:13;;;;;;;42.22;6.28;;;;;;;42.68;17.22;100285.41;4984335;28;20050;-87
2022/08/27 10:44:49;;;;;;;39.17;6.00;;;;;;;41.61;18.46;100297.00;4993648;28;20049;-82
2022/08/27 10:47:36;;;;;;;42.10;6.95;;;;;;;41.70;18.05;100288.22;4964495;28;20049;-80
2022/08/27 10:50:24;;;;;;;30.45;6.15;;;;;;;42.14;18.05;100282.78;4995754;28;20043;-80
2022/08/27 10:53:00;;;;;;;35.25;6.22;;;;;;;41.71;18.28;100289.88;4993506;28;20090;-83
2022/08/27 10:55:39;;;;;;;35.63;5.65;;;;;;;42.59;17.26;100283.75;4988061;28;20082;-81
2022/08/27 10:58:29;;;;;;;35.33;6.00;;;;;;;42.30;17.33;100288.22;4974383;28;20066;-81
2022/08/27 11:01:13;;;;;;;40.10;6.22;;;;;;;43.16;16.56;100277.00;4972976;28;20042;-83
2022/08/27 11:03:59;;;;;;;29.33;5.88;;;;;;;43.38;15.95;100280.78;4977901;28;20038;-85
2022/08/27 11:06:29;;;;;;;32.40;5.70;;;;;;;41.60;17.60;100278.44;4967130;28;20046;-82
2022/08/27 11:08:58;;;;;;;28.48;4.97;;;;;;;40.49;18.22;100282.97;4972619;28;20519;-81
2022/08/27 11:11:57;;;;;;;34.30;5.63;;;;;;;39.32;19.48;100276.38;4972741;28;20491;-80
2022/08/27 11:14:47;;;;;;;40.97;5.68;;;;;;;39.47;19.30;100277.53;4984269;28;20123;-83
2022/08/27 11:17:31;;;;;;;36.47;6.43;;;;;;;39.35;19.70;100284.06;4984221;28;20080;-81
2022/08/27 11:20:17;;;;;;;34.25;5.88;;;;;;;38.85;20.40;100280.81;4958259;28;21725;-82
2022/08/27 11:23:30;;;;;;;34.70;5.95;;;;;;;38.81;20.30;100285.50;4970733;28;20045;-82
2022/08/27 11:26:05;;;;;;;36.42;5.25;;;;;;;38.54;19.78;100275.13;4949986;28;20042;-85
2022/08/27 11:28:37;;;;;;;40.83;6.28;;;;;;;38.33;20.54;100273.38;4956461;28;20450;-83
2022/08/27 11:31:08;;;;;;;35.60;5.25;;;;;;;38.42;20.56;100282.44;4972080;28;20052;-83
2022/08/27 11:34:41;;;;;;;36.13;4.95;;;;;;;38.33;20.08;100276.19;4984685;28;20046;-82
2022/08/27 11:37:38;;;;;;;34.90;5.78;;;;;;;38.27;20.88;100279.59;4935972;29;20154;-81
2022/08/27 11:40:19;;;;;;;37.83;5.10;;;;;;;37.85;21.72;100277.94;4973796;28;20170;-80
2022/08/27 11:42:54;;;;;;;39.58;5.30;;;;;;;37.16;22.77;100274.97;4985284;28;20099;-82
2022/08/27 11:45:28;;;;;;;37.00;4.70;;;;;;;37.11;22.96;100275.22;4969484;28;20046;-81